createdAt,value
2024-01-15T00:00:26.040Z,17.98
2024-01-15T00:02:52.879Z,22.13
2024-01-15T00:05:19.750Z,18.85
2024-01-15T00:07:46.809Z,20.08
2024-01-15T00:10:13.642Z,21.67
2024-01-15T00:12:40.573Z,18.02
2024-01-15T00:15:07.905Z,16.60
2024-01-15T00:17:34.841Z,18.67
2024-01-15T00:20:02.082Z,19.25
2024-01-15T00:22:29.040Z,20.92
2024-01-15T00:24:56.023Z,20.77
2024-01-15T00:27:23.249Z,20.30
2024-01-15T00:29:51.638Z,16.08
2024-01-15T00:32:18.480Z,19.25
2024-01-15T00:34:45.732Z,20.33
2024-01-15T00:37:13.061Z,19.20
2024-01-15T00:39:39.958Z,21.00
2024-01-15T00:42:06.843Z,24.33
2024-01-15T00:44:33.681Z,21.10
2024-01-15T00:47:00.852Z,21.10
2024-01-15T00:49:28.319Z,21.38
2024-01-15T00:51:55.423Z,17.95
2024-01-15T00:54:22.342Z,18.40
2024-01-15T00:56:54.596Z,24.88
2024-01-15T00:59:21.932Z,21.30
2024-01-15T01:01:49.119Z,18.48
2024-01-15T01:04:15.985Z,18.88
2024-01-15T01:06:43.023Z,20.75
2024-01-15T01:09:09.992Z,19.77
2024-01-15T01:11:40.199Z,21.27
2024-01-15T01:14:07.617Z,18.58
2024-01-15T01:16:40.293Z,20.48
2024-01-15T01:19:08.427Z,22.85
2024-01-15T01:21:35.672Z,25.20
2024-01-15T01:24:02.509Z,22.83
2024-01-15T01:26:29.317Z,27.42
2024-01-15T01:28:56.465Z,26.35
2024-01-15T01:31:24.379Z,22.60
2024-01-15T01:33:51.388Z,27.30
2024-01-15T01:36:18.272Z,23.02
2024-01-15T01:38:45.132Z,24.88
2024-01-15T01:41:12.225Z,25.70
2024-01-15T01:43:39.083Z,25.15
2024-01-15T01:46:05.911Z,23.33
2024-01-15T01:48:32.781Z,24.30
2024-01-15T01:51:01.435Z,28.13
2024-01-15T01:53:28.548Z,28.90
2024-01-15T01:55:55.828Z,24.48
2024-01-15T01:58:22.637Z,24.45
2024-01-15T02:00:50.621Z,24.50
2024-01-15T02:03:17.637Z,27.73
2024-01-15T02:05:46.184Z,26.92
2024-01-15T02:08:13.308Z,29.42
2024-01-15T02:10:40.114Z,26.05
2024-01-15T02:13:07.055Z,26.52
2024-01-15T02:15:33.941Z,20.02
2024-01-15T02:18:02.331Z,29.23
2024-01-15T02:20:29.601Z,24.50
2024-01-15T02:23:20.687Z,20.52
2024-01-15T02:25:48.001Z,24.05
2024-01-15T02:28:18.545Z,23.15
2024-01-15T02:30:45.907Z,23.98
2024-01-15T02:33:13.587Z,22.77
2024-01-15T02:35:41.091Z,20.25
2024-01-15T02:38:08.091Z,29.67
2024-01-15T02:40:36.153Z,31.38
2024-01-15T02:43:03.024Z,31.45
2024-01-15T02:45:30.079Z,29.85
2024-01-15T02:47:57.377Z,31.02
2024-01-15T02:50:24.278Z,27.23
2024-01-15T02:52:51.540Z,32.75
2024-01-15T02:55:18.282Z,28.70
2024-01-15T02:57:45.306Z,34.55
2024-01-15T03:00:13.016Z,33.15
2024-01-15T03:02:42.981Z,28.80
2024-01-15T03:05:11.511Z,28.38
2024-01-15T03:07:38.715Z,31.95
2024-01-15T03:10:14.191Z,28.98
2024-01-15T03:12:41.075Z,30.15
2024-01-15T03:15:08.233Z,28.63
2024-01-15T03:17:35.142Z,30.52
2024-01-15T03:20:02.927Z,26.05
2024-01-15T03:22:29.772Z,28.33
2024-01-15T03:24:56.696Z,22.27
2024-01-15T03:27:23.524Z,37.60
2024-01-15T03:29:55.631Z,31.88
2024-01-15T03:32:22.451Z,24.42
2024-01-15T03:34:49.702Z,32.30
2024-01-15T03:37:16.668Z,27.90
2024-01-15T03:39:43.503Z,17.88
2024-01-15T03:42:10.408Z,19.98
2024-01-15T03:44:37.257Z,29.20
2024-01-15T03:47:04.111Z,26.60
2024-01-15T03:49:31.356Z,30.48
2024-01-15T03:51:58.290Z,23.05
2024-01-15T03:54:28.386Z,25.08
2024-01-15T03:56:55.204Z,33.53
2024-01-15T03:59:22.002Z,28.45
2024-01-15T04:01:52.174Z,21.90
2024-01-15T04:04:19.615Z,24.30
2024-01-15T04:06:46.742Z,31.80
2024-01-15T04:09:14.926Z,28.77
2024-01-15T04:11:41.859Z,34.92
2024-01-15T04:14:08.601Z,20.65
2024-01-15T04:16:35.834Z,31.65
2024-01-15T04:19:02.844Z,29.90
2024-01-15T04:21:29.889Z,30.65
2024-01-15T04:23:56.671Z,31.58
2024-01-15T04:26:23.547Z,26.83
2024-01-15T04:28:50.851Z,27.90
2024-01-15T04:31:28.845Z,29.23
2024-01-15T04:33:56.073Z,26.95
2024-01-15T04:36:26.324Z,19.45
2024-01-15T04:38:53.122Z,25.58
2024-01-15T04:41:20.081Z,20.77
2024-01-15T04:43:47.757Z,23.30
2024-01-15T04:46:14.614Z,24.33
2024-01-15T04:48:41.554Z,21.25
2024-01-15T04:51:10.354Z,23.80
2024-01-15T04:53:37.329Z,23.85
2024-01-15T04:56:04.371Z,25.58
2024-01-15T04:58:31.562Z,17.70
2024-01-15T05:01:01.427Z,27.77
2024-01-15T05:03:28.475Z,22.95
2024-01-15T05:05:55.408Z,23.08
2024-01-15T05:08:22.531Z,23.02
2024-01-15T05:10:49.733Z,28.63
2024-01-15T05:13:16.582Z,19.67
2024-01-15T05:15:43.563Z,25.25
2024-01-15T05:18:11.167Z,25.55
2024-01-15T05:20:38.085Z,25.17
2024-01-15T05:23:07.654Z,26.55
2024-01-15T05:25:34.886Z,23.67
2024-01-15T05:28:01.680Z,24.52
2024-01-15T05:30:28.795Z,24.08
2024-01-15T05:32:55.935Z,25.13
2024-01-15T05:35:22.805Z,20.02
2024-01-15T05:37:49.904Z,23.05
2024-01-15T05:40:16.755Z,24.88
2024-01-15T05:42:43.672Z,23.25
2024-01-15T05:45:10.825Z,23.83
2024-01-15T05:47:37.888Z,23.45
2024-01-15T05:50:06.547Z,27.77
2024-01-15T05:52:33.829Z,24.60
2024-01-15T05:55:00.718Z,23.20
2024-01-15T05:57:27.662Z,25.33
2024-01-15T05:59:54.599Z,24.38
2024-01-15T06:02:22.736Z,21.63
2024-01-15T06:04:49.715Z,20.65
2024-01-15T06:07:16.858Z,24.58
2024-01-15T06:09:43.700Z,25.25
2024-01-15T06:12:13.870Z,25.02
2024-01-15T06:14:40.763Z,18.70
2024-01-15T06:17:07.695Z,23.75
2024-01-15T06:19:37.606Z,23.52
2024-01-15T06:22:05.272Z,23.85
2024-01-15T06:24:32.363Z,23.15
2024-01-15T06:26:59.357Z,22.10
2024-01-15T06:29:29.350Z,18.77
2024-01-15T06:31:56.262Z,21.05
2024-01-15T06:34:23.380Z,18.58
2024-01-15T06:36:50.348Z,20.33
2024-01-15T06:39:17.492Z,20.35
2024-01-15T06:41:47.006Z,17.55
2024-01-15T06:44:14.219Z,18.25
2024-01-15T06:46:44.461Z,19.92
2024-01-15T06:49:11.893Z,20.73
2024-01-15T06:51:39.466Z,19.23
2024-01-15T06:54:06.488Z,20.88
2024-01-15T06:56:33.472Z,20.63
2024-01-15T06:59:00.369Z,18.35
2024-01-15T07:01:27.353Z,19.20
2024-01-15T07:03:54.633Z,21.30
2024-01-15T07:06:22.035Z,16.15
2024-01-15T07:08:48.875Z,17.90
2024-01-15T07:11:15.753Z,18.58
2024-01-15T07:13:42.833Z,17.90
2024-01-15T07:16:09.971Z,18.23
2024-01-15T07:18:36.930Z,18.33
2024-01-15T07:21:04.088Z,17.33
2024-01-15T07:23:32.416Z,18.15
2024-01-15T07:25:59.235Z,20.52
2024-01-15T07:28:26.046Z,13.38
2024-01-15T07:30:53.560Z,17.63
2024-01-15T07:33:21.424Z,18.45
2024-01-15T07:35:48.272Z,18.55
2024-01-15T07:38:15.139Z,16.05
2024-01-15T07:40:42.049Z,19.70
2024-01-15T07:43:10.136Z,16.73
2024-01-15T07:45:37.396Z,18.02
2024-01-15T07:48:05.169Z,15.15
2024-01-15T07:50:32.119Z,15.57
2024-01-15T07:53:00.078Z,16.13
2024-01-15T07:55:27.770Z,15.57
2024-01-15T07:58:11.118Z,20.40
2024-01-15T08:00:42.362Z,17.60
2024-01-15T08:03:11.664Z,17.55
2024-01-15T08:05:41.609Z,16.42
2024-01-15T08:08:08.440Z,14.43
2024-01-15T08:10:35.308Z,16.55
2024-01-15T08:13:02.564Z,16.15
2024-01-15T08:15:31.522Z,14.55
2024-01-15T08:17:59.881Z,16.20
2024-01-15T08:20:27.277Z,8.80
2024-01-15T08:22:54.435Z,15.45
2024-01-15T08:25:22.153Z,13.23
2024-01-15T08:27:49.115Z,15.07
2024-01-15T08:30:16.283Z,12.98
2024-01-15T08:32:44.100Z,15.48
2024-01-15T08:35:11.536Z,12.80
2024-01-15T08:37:39.504Z,15.93
2024-01-15T08:40:08.340Z,15.90
2024-01-15T08:42:35.416Z,15.85
2024-01-15T08:45:03.001Z,12.23
2024-01-15T08:47:29.910Z,17.60
2024-01-15T08:49:56.800Z,12.40
2024-01-15T08:52:23.692Z,10.70
2024-01-15T08:54:50.554Z,16.13
2024-01-15T08:57:17.492Z,13.45
2024-01-15T08:59:44.487Z,16.70
2024-01-15T09:02:11.238Z,12.05
2024-01-15T09:04:38.278Z,12.25
2024-01-15T09:07:05.639Z,11.85
2024-01-15T09:09:32.499Z,15.05
2024-01-15T09:11:59.390Z,13.10
2024-01-15T09:14:35.692Z,16.77
2024-01-15T09:17:05.863Z,14.57
2024-01-15T09:19:32.962Z,12.10
2024-01-15T09:22:00.338Z,12.93
2024-01-15T09:24:28.567Z,12.65
2024-01-15T09:26:56.401Z,13.10
2024-01-15T09:29:25.218Z,12.07
2024-01-15T09:31:52.769Z,11.68
2024-01-15T09:34:20.234Z,12.60
2024-01-15T09:36:47.268Z,10.75
2024-01-15T09:39:14.217Z,10.85
2024-01-15T09:41:41.097Z,11.43
2024-01-15T09:44:10.728Z,11.57
2024-01-15T09:46:37.509Z,15.70
2024-01-15T09:49:04.391Z,9.52
2024-01-15T09:51:34.645Z,14.00
2024-01-15T09:54:02.894Z,16.58
2024-01-15T09:56:29.782Z,16.25
2024-01-15T09:58:58.478Z,12.98
2024-01-15T10:01:25.714Z,12.52
2024-01-15T10:03:52.668Z,12.32
2024-01-15T10:06:22.148Z,12.68
2024-01-15T10:08:59.845Z,14.68
2024-01-15T10:11:27.047Z,14.02
2024-01-15T10:13:57.561Z,14.57
2024-01-15T10:16:25.155Z,11.52
2024-01-15T10:18:52.629Z,12.05
2024-01-15T10:21:19.520Z,12.90
2024-01-15T10:23:46.321Z,15.70
2024-01-15T10:26:19.208Z,11.65
2024-01-15T10:28:46.483Z,11.52
2024-01-15T10:31:13.279Z,11.30
2024-01-15T10:33:40.303Z,12.50
2024-01-15T10:36:07.650Z,12.73
2024-01-15T10:38:34.555Z,10.45
2024-01-15T10:41:01.344Z,11.88
2024-01-15T10:43:29.560Z,11.02
2024-01-15T10:45:56.935Z,15.15
2024-01-15T10:48:24.280Z,14.57
2024-01-15T10:50:51.333Z,10.45
2024-01-15T10:53:18.339Z,10.65
2024-01-15T10:55:45.591Z,10.13
2024-01-15T10:58:12.545Z,12.35
2024-01-15T11:00:39.678Z,10.68
2024-01-15T11:03:07.270Z,12.68
2024-01-15T11:05:43.762Z,13.25
2024-01-15T11:08:10.894Z,11.10
2024-01-15T11:10:53.122Z,18.10
2024-01-15T11:13:27.168Z,16.48
2024-01-15T11:16:06.175Z,11.15
2024-01-15T11:18:41.283Z,9.43
2024-01-15T11:21:08.762Z,14.05
2024-01-15T11:23:50.568Z,11.13
2024-01-15T11:26:38.403Z,15.93
2024-01-15T11:29:07.494Z,14.05
2024-01-15T11:31:48.172Z,10.23
2024-01-15T11:34:15.163Z,11.68
2024-01-15T11:36:51.598Z,14.57
2024-01-15T11:39:31.778Z,9.63
2024-01-15T11:42:02.499Z,12.02
2024-01-15T11:44:29.357Z,12.48
2024-01-15T11:47:16.488Z,13.60
2024-01-15T11:50:15.572Z,12.43
2024-01-15T11:52:42.425Z,12.45
2024-01-15T11:55:12.070Z,12.20
2024-01-15T11:57:55.751Z,10.65
2024-01-15T12:00:23.648Z,10.10
2024-01-15T12:02:50.719Z,10.18
2024-01-15T12:05:19.432Z,12.15
2024-01-15T12:07:47.374Z,11.82
2024-01-15T12:10:17.696Z,9.85
2024-01-15T12:13:02.224Z,11.45
2024-01-15T12:15:30.136Z,7.53
2024-01-15T12:18:00.886Z,14.13
2024-01-15T12:20:28.012Z,9.60
2024-01-15T12:23:01.500Z,11.63
2024-01-15T12:25:30.638Z,12.48
2024-01-15T12:27:57.797Z,12.95
2024-01-15T12:30:24.892Z,12.20
2024-01-15T12:32:52.044Z,14.00
2024-01-15T12:35:18.985Z,8.02
2024-01-15T12:37:47.659Z,10.95
2024-01-15T12:40:20.761Z,15.70
2024-01-15T12:42:47.808Z,14.35
2024-01-15T12:45:14.993Z,14.68
2024-01-15T12:47:42.577Z,15.05
2024-01-15T12:50:16.596Z,15.20
2024-01-15T12:52:46.867Z,11.45
2024-01-15T12:55:15.950Z,13.15
2024-01-15T12:57:43.155Z,13.43
2024-01-15T13:00:14.583Z,14.43
2024-01-15T13:02:43.361Z,11.13
2024-01-15T13:05:12.959Z,15.70
2024-01-15T13:07:40.736Z,11.50
2024-01-15T13:10:07.983Z,11.27
2024-01-15T13:12:38.973Z,16.65
2024-01-15T13:15:06.296Z,12.43
2024-01-15T13:17:33.298Z,14.55
2024-01-15T13:20:01.489Z,12.85
2024-01-15T13:22:33.553Z,18.00
2024-01-15T13:25:02.025Z,15.50
2024-01-15T13:27:29.888Z,13.45
2024-01-15T13:29:56.950Z,17.30
2024-01-15T13:32:27.705Z,11.07
2024-01-15T13:34:56.772Z,11.30
2024-01-15T13:37:25.817Z,15.18
2024-01-15T13:39:53.978Z,13.50
2024-01-15T13:42:23.605Z,15.75
2024-01-15T13:44:50.767Z,14.13
2024-01-15T13:47:17.730Z,16.45
2024-01-15T13:49:44.633Z,14.68
2024-01-15T13:52:11.464Z,14.25
2024-01-15T13:54:48.023Z,14.73
2024-01-15T13:57:18.080Z,15.55
2024-01-15T13:59:45.180Z,13.75
2024-01-15T14:02:18.190Z,14.90
2024-01-15T14:04:49.142Z,12.18
2024-01-15T14:07:19.292Z,11.48
2024-01-15T14:09:46.568Z,13.55
2024-01-15T14:12:13.624Z,16.52
2024-01-15T14:14:41.612Z,15.20
2024-01-15T14:17:11.138Z,14.98
2024-01-15T14:19:40.735Z,11.18
2024-01-15T14:22:07.855Z,10.02
2024-01-15T14:24:36.019Z,13.02
2024-01-15T14:27:02.777Z,10.38
2024-01-15T14:29:29.792Z,31.33
2024-01-15T14:31:56.735Z,23.48
2024-01-15T14:34:27.250Z,13.82
2024-01-15T14:36:59.926Z,15.50
2024-01-15T14:39:29.986Z,11.40
2024-01-15T14:41:56.852Z,11.90
2024-01-15T14:44:23.934Z,9.85
2024-01-15T14:46:51.419Z,9.00
2024-01-15T14:49:18.909Z,13.52
2024-01-15T14:51:46.234Z,10.60
2024-01-15T14:54:13.128Z,8.80
2024-01-15T14:56:40.085Z,11.40
2024-01-15T14:59:06.965Z,10.27
2024-01-15T15:01:34.035Z,11.88
2024-01-15T15:04:01.056Z,9.70
2024-01-15T15:06:29.548Z,10.10
2024-01-15T15:08:58.873Z,9.57
2024-01-15T15:11:29.647Z,11.90
2024-01-15T15:13:56.600Z,11.68
2024-01-15T15:16:23.424Z,10.05
2024-01-15T15:18:50.684Z,10.32
2024-01-15T15:21:17.915Z,11.75
2024-01-15T15:23:45.094Z,9.75
2024-01-15T15:26:13.610Z,10.63
2024-01-15T15:28:40.463Z,10.27
2024-01-15T15:31:12.892Z,10.05
2024-01-15T15:33:40.230Z,9.98
2024-01-15T15:36:07.612Z,8.82
2024-01-15T15:38:35.901Z,9.13
2024-01-15T15:41:02.792Z,9.10
2024-01-15T15:43:29.785Z,8.77
2024-01-15T15:45:57.376Z,8.77
2024-01-15T15:48:24.548Z,9.38
2024-01-15T15:50:52.516Z,10.77
2024-01-15T15:53:23.437Z,9.18
2024-01-15T15:55:50.664Z,9.15
2024-01-15T15:58:17.450Z,7.95
2024-01-15T16:00:44.389Z,6.97
2024-01-15T16:03:11.224Z,10.00
2024-01-15T16:05:45.577Z,7.90
2024-01-15T16:08:19.064Z,10.18
2024-01-15T16:10:47.414Z,10.80
2024-01-15T16:13:15.292Z,13.00
2024-01-15T16:15:42.271Z,8.52
2024-01-15T16:23:19.052Z,9.05
2024-01-15T16:23:33.470Z,10.40
2024-01-15T16:24:08.193Z,9.57
2024-01-15T16:26:29.777Z,8.02
2024-01-15T16:28:58.039Z,9.00
2024-01-15T16:31:25.228Z,9.98
2024-01-15T16:33:55.575Z,10.05
2024-01-15T16:36:26.519Z,7.88
2024-01-15T16:38:53.605Z,8.63
2024-01-15T16:41:20.516Z,7.47
2024-01-15T16:43:47.624Z,10.90
2024-01-15T16:46:14.450Z,9.02
2024-01-15T16:48:41.323Z,9.68
2024-01-15T16:51:08.203Z,9.10
2024-01-15T16:53:35.112Z,11.25
2024-01-15T16:56:02.089Z,9.73
2024-01-15T16:58:28.940Z,7.60
2024-01-15T17:00:55.762Z,7.90
2024-01-15T17:03:22.965Z,7.47
2024-01-15T17:05:49.821Z,6.32
2024-01-15T17:08:19.236Z,12.32
2024-01-15T17:10:46.057Z,7.63
2024-01-15T17:13:12.885Z,6.25
2024-01-15T17:15:41.038Z,8.00
2024-01-15T17:18:08.846Z,8.18
2024-01-15T17:20:35.912Z,9.45
2024-01-15T17:23:02.829Z,8.15
2024-01-15T17:25:31.755Z,10.25
2024-01-15T17:27:58.611Z,7.95
2024-01-15T17:30:25.716Z,8.55
2024-01-15T17:32:52.720Z,7.78
2024-01-15T17:35:19.936Z,7.78
2024-01-15T17:37:46.856Z,9.38
2024-01-15T17:40:13.637Z,10.27
2024-01-15T17:42:40.481Z,8.02
2024-01-15T17:45:12.505Z,9.38
2024-01-15T17:47:42.413Z,10.18
2024-01-15T17:50:09.527Z,7.50
2024-01-15T17:52:37.642Z,13.27
2024-01-15T17:55:04.776Z,7.28
2024-01-15T17:57:31.566Z,7.43
2024-01-15T17:59:58.672Z,7.18
2024-01-15T18:02:25.589Z,7.13
2024-01-15T18:04:58.569Z,7.63
2024-01-15T18:07:25.793Z,6.55
2024-01-15T18:09:56.590Z,8.32
2024-01-15T18:12:25.329Z,6.93
2024-01-15T18:14:52.163Z,5.93
2024-01-15T18:17:19.093Z,6.05
2024-01-15T18:19:45.974Z,8.02
2024-01-15T18:22:14.260Z,5.13
2024-01-15T18:24:41.164Z,8.43
2024-01-15T18:27:09.595Z,6.05
2024-01-15T18:29:36.480Z,5.60
2024-01-15T18:32:04.010Z,6.88
2024-01-15T18:34:31.012Z,5.53
2024-01-15T18:36:58.082Z,6.03
2024-01-15T18:39:24.976Z,5.60
2024-01-15T18:41:54.627Z,6.55
2024-01-15T18:44:23.017Z,7.25
2024-01-15T18:46:50.218Z,6.22
2024-01-15T18:49:19.685Z,6.45
2024-01-15T18:51:49.254Z,8.73
2024-01-15T18:54:17.224Z,4.95
2024-01-15T18:56:44.763Z,4.75
2024-01-15T18:59:12.660Z,5.30
2024-01-15T19:01:39.754Z,5.55
2024-01-15T19:04:06.592Z,4.32
2024-01-15T19:06:33.421Z,6.25
2024-01-15T19:09:00.266Z,8.80
2024-01-15T19:11:27.468Z,4.40
2024-01-15T19:13:54.664Z,3.97
2024-01-15T19:16:24.377Z,5.38
2024-01-15T19:18:52.228Z,6.22
2024-01-15T19:21:19.211Z,4.07
2024-01-15T19:23:46.084Z,3.80
2024-01-15T19:26:20.263Z,5.00
2024-01-15T19:28:47.568Z,5.32
2024-01-15T19:31:14.503Z,4.53
2024-01-15T19:33:43.713Z,5.03
2024-01-15T19:36:22.220Z,4.40
2024-01-15T19:38:49.661Z,6.07
2024-01-15T19:41:16.898Z,3.80
2024-01-15T19:43:43.718Z,5.25
2024-01-15T19:46:10.536Z,5.15
2024-01-15T19:48:37.942Z,5.28
2024-01-15T19:51:05.090Z,4.68
2024-01-15T19:53:31.874Z,3.92
2024-01-15T19:55:59.082Z,3.63
2024-01-15T19:58:25.949Z,4.47
2024-01-15T20:00:53.059Z,2.88
2024-01-15T20:03:19.910Z,3.88
2024-01-15T20:05:52.418Z,3.67
2024-01-15T20:08:19.501Z,4.22
2024-01-15T20:10:46.379Z,4.78
2024-01-15T20:13:13.105Z,4.68
2024-01-15T20:15:45.488Z,4.72
2024-01-15T20:18:12.463Z,8.20
2024-01-15T20:20:44.208Z,4.25
2024-01-15T20:23:11.217Z,3.85
2024-01-15T20:25:38.571Z,5.18
2024-01-15T20:28:08.320Z,6.07
2024-01-15T20:30:35.069Z,3.85
2024-01-15T20:33:02.292Z,4.60
2024-01-15T20:35:30.075Z,3.83
2024-01-15T20:37:58.628Z,4.15
2024-01-15T20:40:25.784Z,3.45
2024-01-15T20:42:52.676Z,2.92
2024-01-15T20:45:19.626Z,4.22
2024-01-15T20:47:46.443Z,4.97
2024-01-15T20:50:13.732Z,5.50
2024-01-15T20:52:40.679Z,3.20
2024-01-15T20:55:07.903Z,4.05
2024-01-15T20:57:34.796Z,5.05
2024-01-15T21:00:01.674Z,3.60
2024-01-15T21:02:28.934Z,4.10
2024-01-15T21:04:56.540Z,4.07
2024-01-15T21:07:29.256Z,4.13
2024-01-15T21:09:56.317Z,6.60
2024-01-15T21:12:23.242Z,5.93
2024-01-15T21:14:50.193Z,5.53
2024-01-15T21:17:17.059Z,3.38
2024-01-15T21:19:47.012Z,4.50
2024-01-15T21:22:13.990Z,4.85
2024-01-15T21:24:40.823Z,6.32
2024-01-15T21:27:07.572Z,3.95
2024-01-15T21:29:34.414Z,3.88
2024-01-15T21:32:01.288Z,3.33
2024-01-15T21:34:28.211Z,2.78
2024-01-15T21:36:55.346Z,3.58
2024-01-15T21:39:22.184Z,3.95
2024-01-15T21:41:50.626Z,3.22
2024-01-15T21:44:20.671Z,4.72
2024-01-15T21:46:47.594Z,3.83
2024-01-15T21:49:14.707Z,3.65
2024-01-15T21:51:41.512Z,3.35
2024-01-15T21:54:08.841Z,3.97
2024-01-15T21:56:35.682Z,2.60
2024-01-15T21:59:02.500Z,3.50
2024-01-15T22:01:29.761Z,4.68
2024-01-15T22:03:59.703Z,3.35
2024-01-15T22:06:26.692Z,4.95
2024-01-15T22:08:53.712Z,2.58
2024-01-15T22:11:20.609Z,2.42
2024-01-15T22:13:47.433Z,4.60
2024-01-15T22:16:14.536Z,6.43
2024-01-15T22:18:41.439Z,3.97
2024-01-15T22:21:08.309Z,4.75
2024-01-15T22:23:35.170Z,4.53
2024-01-15T22:26:02.540Z,9.52
2024-01-15T22:28:32.272Z,5.68
2024-01-15T22:30:59.407Z,3.33
2024-01-15T22:33:26.329Z,5.53
2024-01-15T22:35:53.308Z,3.30
2024-01-15T22:38:20.163Z,4.80
2024-01-15T22:40:46.991Z,3.05
2024-01-15T22:43:13.815Z,4.30
2024-01-15T22:45:40.722Z,5.75
2024-01-15T22:48:08.385Z,3.90
2024-01-15T22:50:35.400Z,4.07
2024-01-15T22:53:02.279Z,3.97
2024-01-15T22:55:29.216Z,5.53
2024-01-15T22:57:59.282Z,4.03
2024-01-15T23:00:26.102Z,3.42
2024-01-15T23:03:00.846Z,4.88
2024-01-15T23:05:28.231Z,3.35
2024-01-15T23:07:58.396Z,6.63
2024-01-15T23:10:25.265Z,3.90
2024-01-15T23:12:52.458Z,4.75
2024-01-15T23:15:19.439Z,2.83
2024-01-15T23:17:47.552Z,4.00
2024-01-15T23:20:14.524Z,4.57
2024-01-15T23:22:41.375Z,5.70
2024-01-15T23:25:09.182Z,4.80
2024-01-15T23:27:39.560Z,5.78
2024-01-15T23:30:07.107Z,5.47
2024-01-15T23:32:34.146Z,2.85
2024-01-15T23:35:02.544Z,2.75
2024-01-15T23:37:30.326Z,3.97
2024-01-15T23:39:57.601Z,4.15
2024-01-15T23:42:27.840Z,4.40
2024-01-15T23:44:54.673Z,5.57
2024-01-15T23:47:21.528Z,3.25
2024-01-15T23:49:48.373Z,5.80
2024-01-15T23:52:15.453Z,4.57
2024-01-15T23:54:42.261Z,3.92
2024-01-15T23:57:09.111Z,7.07
2024-01-15T23:59:38.988Z,5.90
